ilmateenistus.ee keskkonnaagentuur.ee
EETN Tallinn
FTEO31 EETN 031700
TAF EETN 031700Z 0318/0418 02010KT 9999 SCT015 BKN025 PROB40 TEMPO
    0318/0321 3000 SHSN BKN008 SCT015CB TEMPO 0321/0410 2000 SHSN BKN005
    BKN012CB TEMPO 0415/0418 2000 SHSN BKN008 SCT015CB=

METAR EETN 032120Z 01003KT 340V040 4800 SN OVC023 M04/M06 Q0999 TEMPO 3000=
Tallinn
EEKA Kärdla
METAR EEKA 032120Z NIL=
Kärdla
EEKE Kuressaare
FCEO32 EETN 031500 AAA
TAF AMD EEKE 031900Z 0316/0322 CNL=

METAR EEKE 032120Z AUTO 36003KT 9000NDV NSC M10/M10 Q1001=
Kuressaare
EEPU Pärnu
METAR EEPU 032120Z NIL=
Pärnu
EETU Tartu
METAR EETU 032120Z AUTO 28010KT 9999 OVC022/// M04/M06 Q0998=
Tartu
EEEI Ämari
METAR EEEI 032050Z AUTO 35003KT 320V030 9999 -SN FEW018/// SCT021/// OVC027/// M04/M07 Q1000=
Ämari